sensor_id;sensor_type;location;lat;lon;timestamp;P1;durP1;ratioP1;P2;durP2;ratioP2
18931;SDS011;9598;50.954;3.112;2023-02-18T00:03:21;6.85;;;6.15;;
18931;SDS011;9598;50.954;3.112;2023-02-18T00:08:23;7.45;;;6.47;;
18931;SDS011;9598;50.954;3.112;2023-02-18T00:13:26;7.00;;;5.95;;
18931;SDS011;9598;50.954;3.112;2023-02-18T00:18:28;7.00;;;6.30;;
18931;SDS011;9598;50.954;3.112;2023-02-18T00:23:31;5.60;;;5.05;;
18931;SDS011;9598;50.954;3.112;2023-02-18T00:28:34;6.28;;;5.68;;
18931;SDS011;9598;50.954;3.112;2023-02-18T00:33:37;7.20;;;6.10;;
18931;SDS011;9598;50.954;3.112;2023-02-18T00:38:39;8.07;;;7.15;;
18931;SDS011;9598;50.954;3.112;2023-02-18T00:43:46;6.97;;;6.25;;
18931;SDS011;9598;50.954;3.112;2023-02-18T00:48:48;8.55;;;6.97;;
18931;SDS011;9598;50.954;3.112;2023-02-18T00:53:51;8.65;;;6.97;;
18931;SDS011;9598;50.954;3.112;2023-02-18T00:58:54;7.93;;;7.13;;
18931;SDS011;9598;50.954;3.112;2023-02-18T01:03:56;8.10;;;7.30;;
18931;SDS011;9598;50.954;3.112;2023-02-18T01:08:58;8.77;;;7.70;;
18931;SDS011;9598;50.954;3.112;2023-02-18T01:14:04;7.35;;;6.63;;
18931;SDS011;9598;50.954;3.112;2023-02-18T01:19:06;9.20;;;7.63;;
18931;SDS011;9598;50.954;3.112;2023-02-18T01:24:08;8.55;;;7.75;;
18931;SDS011;9598;50.954;3.112;2023-02-18T01:29:12;9.05;;;8.15;;
18931;SDS011;9598;50.954;3.112;2023-02-18T01:34:14;8.68;;;7.88;;
18931;SDS011;9598;50.954;3.112;2023-02-18T01:39:16;8.93;;;7.70;;
18931;SDS011;9598;50.954;3.112;2023-02-18T01:44:20;6.57;;;5.97;;
18931;SDS011;9598;50.954;3.112;2023-02-18T01:49:26;6.65;;;5.50;;
18931;SDS011;9598;50.954;3.112;2023-02-18T01:54:33;7.22;;;5.03;;
18931;SDS011;9598;50.954;3.112;2023-02-18T01:59:42;5.90;;;4.43;;
18931;SDS011;9598;50.954;3.112;2023-02-18T02:04:46;4.53;;;4.13;;
18931;SDS011;9598;50.954;3.112;2023-02-18T02:09:50;4.28;;;3.88;;
18931;SDS011;9598;50.954;3.112;2023-02-18T02:15:08;5.63;;;4.15;;
18931;SDS011;9598;50.954;3.112;2023-02-18T02:20:43;4.07;;;3.78;;
18931;SDS011;9598;50.954;3.112;2023-02-18T02:26:21;3.90;;;3.50;;
18931;SDS011;9598;50.954;3.112;2023-02-18T02:32:02;4.20;;;3.33;;
18931;SDS011;9598;50.954;3.112;2023-02-18T02:37:28;4.70;;;3.22;;
18931;SDS011;9598;50.954;3.112;2023-02-18T02:42:43;3.58;;;3.28;;
18931;SDS011;9598;50.954;3.112;2023-02-18T02:47:54;3.42;;;3.22;;
18931;SDS011;9598;50.954;3.112;2023-02-18T02:53:05;4.65;;;3.22;;
18931;SDS011;9598;50.954;3.112;2023-02-18T02:58:14;3.10;;;2.90;;
18931;SDS011;9598;50.954;3.112;2023-02-18T03:03:31;3.80;;;3.15;;
18931;SDS011;9598;50.954;3.112;2023-02-18T03:08:50;3.90;;;3.60;;
18931;SDS011;9598;50.954;3.112;2023-02-18T03:14:04;5.25;;;3.90;;
18931;SDS011;9598;50.954;3.112;2023-02-18T03:19:13;6.75;;;3.97;;
18931;SDS011;9598;50.954;3.112;2023-02-18T03:24:25;3.63;;;3.33;;
18931;SDS011;9598;50.954;3.112;2023-02-18T03:29:30;4.00;;;3.70;;
18931;SDS011;9598;50.954;3.112;2023-02-18T03:34:38;4.03;;;3.70;;
18931;SDS011;9598;50.954;3.112;2023-02-18T03:39:45;3.72;;;3.42;;
18931;SDS011;9598;50.954;3.112;2023-02-18T03:44:52;4.30;;;3.85;;
18931;SDS011;9598;50.954;3.112;2023-02-18T03:49:56;4.38;;;4.00;;
18931;SDS011;9598;50.954;3.112;2023-02-18T03:54:59;4.82;;;4.30;;
18931;SDS011;9598;50.954;3.112;2023-02-18T04:00:02;4.28;;;3.85;;
18931;SDS011;9598;50.954;3.112;2023-02-18T04:05:13;4.93;;;4.20;;
18931;SDS011;9598;50.954;3.112;2023-02-18T04:10:17;4.35;;;3.95;;
18931;SDS011;9598;50.954;3.112;2023-02-18T04:15:22;5.90;;;4.22;;
18931;SDS011;9598;50.954;3.112;2023-02-18T04:20:24;4.78;;;4.32;;
18931;SDS011;9598;50.954;3.112;2023-02-18T04:25:28;5.97;;;4.72;;
18931;SDS011;9598;50.954;3.112;2023-02-18T04:30:30;6.88;;;5.43;;
18931;SDS011;9598;50.954;3.112;2023-02-18T04:35:32;9.75;;;4.35;;
18931;SDS011;9598;50.954;3.112;2023-02-18T04:40:37;10.68;;;4.63;;
18931;SDS011;9598;50.954;3.112;2023-02-18T04:45:39;9.20;;;4.18;;
18931;SDS011;9598;50.954;3.112;2023-02-18T04:50:42;13.13;;;3.97;;
18931;SDS011;9598;50.954;3.112;2023-02-18T04:55:49;12.10;;;3.83;;
18931;SDS011;9598;50.954;3.112;2023-02-18T05:00:51;10.07;;;4.03;;
18931;SDS011;9598;50.954;3.112;2023-02-18T05:05:57;10.55;;;2.92;;
18931;SDS011;9598;50.954;3.112;2023-02-18T05:11:00;11.63;;;3.22;;
18931;SDS011;9598;50.954;3.112;2023-02-18T05:16:06;13.95;;;3.80;;
18931;SDS011;9598;50.954;3.112;2023-02-18T05:21:08;12.30;;;3.75;;
18931;SDS011;9598;50.954;3.112;2023-02-18T05:26:12;11.95;;;3.05;;
18931;SDS011;9598;50.954;3.112;2023-02-18T05:31:14;10.50;;;3.13;;
18931;SDS011;9598;50.954;3.112;2023-02-18T05:36:17;12.85;;;3.17;;
18931;SDS011;9598;50.954;3.112;2023-02-18T05:41:20;9.57;;;3.38;;
18931;SDS011;9598;50.954;3.112;2023-02-18T05:46:22;8.90;;;2.92;;
18931;SDS011;9598;50.954;3.112;2023-02-18T05:51:24;8.02;;;2.55;;
18931;SDS011;9598;50.954;3.112;2023-02-18T05:56:28;12.02;;;3.03;;
18931;SDS011;9598;50.954;3.112;2023-02-18T06:01:30;9.73;;;3.08;;
18931;SDS011;9598;50.954;3.112;2023-02-18T06:06:32;7.22;;;2.85;;
18931;SDS011;9598;50.954;3.112;2023-02-18T06:11:36;6.85;;;2.55;;
18931;SDS011;9598;50.954;3.112;2023-02-18T06:16:38;9.27;;;2.83;;
18931;SDS011;9598;50.954;3.112;2023-02-18T06:21:40;5.68;;;2.80;;
18931;SDS011;9598;50.954;3.112;2023-02-18T06:26:43;9.70;;;2.60;;
18931;SDS011;9598;50.954;3.112;2023-02-18T06:31:46;9.38;;;2.50;;
18931;SDS011;9598;50.954;3.112;2023-02-18T06:36:48;8.18;;;3.08;;
18931;SDS011;9598;50.954;3.112;2023-02-18T06:41:51;9.95;;;2.70;;
18931;SDS011;9598;50.954;3.112;2023-02-18T06:46:53;6.78;;;2.65;;
18931;SDS011;9598;50.954;3.112;2023-02-18T06:51:55;11.13;;;2.70;;
18931;SDS011;9598;50.954;3.112;2023-02-18T06:56:59;7.22;;;2.58;;
18931;SDS011;9598;50.954;3.112;2023-02-18T07:02:01;11.32;;;3.00;;
18931;SDS011;9598;50.954;3.112;2023-02-18T07:07:03;9.77;;;2.70;;
18931;SDS011;9598;50.954;3.112;2023-02-18T07:12:07;9.30;;;2.30;;
18931;SDS011;9598;50.954;3.112;2023-02-18T07:17:09;7.03;;;2.38;;
18931;SDS011;9598;50.954;3.112;2023-02-18T07:22:11;12.98;;;3.05;;
18931;SDS011;9598;50.954;3.112;2023-02-18T07:27:14;10.00;;;3.28;;
18931;SDS011;9598;50.954;3.112;2023-02-18T07:32:17;5.72;;;2.38;;
18931;SDS011;9598;50.954;3.112;2023-02-18T07:37:20;7.53;;;2.38;;
18931;SDS011;9598;50.954;3.112;2023-02-18T07:42:23;6.05;;;2.17;;
18931;SDS011;9598;50.954;3.112;2023-02-18T07:47:25;9.10;;;2.20;;
18931;SDS011;9598;50.954;3.112;2023-02-18T07:52:27;6.65;;;2.42;;
18931;SDS011;9598;50.954;3.112;2023-02-18T07:57:31;8.07;;;2.45;;
18931;SDS011;9598;50.954;3.112;2023-02-18T08:02:53;5.78;;;1.80;;
18931;SDS011;9598;50.954;3.112;2023-02-18T08:07:55;8.25;;;1.90;;
18931;SDS011;9598;50.954;3.112;2023-02-18T08:12:58;4.03;;;2.15;;
18931;SDS011;9598;50.954;3.112;2023-02-18T08:18:01;6.60;;;2.08;;
18931;SDS011;9598;50.954;3.112;2023-02-18T08:23:04;10.00;;;2.50;;
18931;SDS011;9598;50.954;3.112;2023-02-18T08:28:08;5.32;;;1.77;;
18931;SDS011;9598;50.954;3.112;2023-02-18T08:33:10;5.97;;;2.67;;
18931;SDS011;9598;50.954;3.112;2023-02-18T08:38:12;4.95;;;1.77;;
18931;SDS011;9598;50.954;3.112;2023-02-18T08:43:16;5.82;;;2.47;;
18931;SDS011;9598;50.954;3.112;2023-02-18T08:48:18;10.07;;;2.92;;
18931;SDS011;9598;50.954;3.112;2023-02-18T08:53:21;6.93;;;3.13;;
18931;SDS011;9598;50.954;3.112;2023-02-18T08:58:24;6.80;;;2.05;;
18931;SDS011;9598;50.954;3.112;2023-02-18T09:03:27;7.75;;;2.83;;
18931;SDS011;9598;50.954;3.112;2023-02-18T09:08:29;7.28;;;2.70;;
18931;SDS011;9598;50.954;3.112;2023-02-18T09:13:33;8.85;;;2.72;;
18931;SDS011;9598;50.954;3.112;2023-02-18T09:18:35;10.38;;;3.38;;
18931;SDS011;9598;50.954;3.112;2023-02-18T09:23:37;7.50;;;2.47;;
18931;SDS011;9598;50.954;3.112;2023-02-18T09:28:41;12.93;;;3.28;;
18931;SDS011;9598;50.954;3.112;2023-02-18T09:33:44;8.32;;;3.58;;
18931;SDS011;9598;50.954;3.112;2023-02-18T09:38:49;7.47;;;2.50;;
18931;SDS011;9598;50.954;3.112;2023-02-18T09:43:53;10.82;;;3.13;;
18931;SDS011;9598;50.954;3.112;2023-02-18T09:48:59;10.10;;;2.63;;
18931;SDS011;9598;50.954;3.112;2023-02-18T09:54:03;9.90;;;3.13;;
18931;SDS011;9598;50.954;3.112;2023-02-18T09:59:10;8.93;;;3.10;;
18931;SDS011;9598;50.954;3.112;2023-02-18T10:04:15;11.63;;;3.38;;
18931;SDS011;9598;50.954;3.112;2023-02-18T10:09:24;12.48;;;2.55;;
18931;SDS011;9598;50.954;3.112;2023-02-18T10:14:33;10.35;;;3.33;;
18931;SDS011;9598;50.954;3.112;2023-02-18T10:19:36;6.45;;;2.70;;
18931;SDS011;9598;50.954;3.112;2023-02-18T10:24:41;8.50;;;2.60;;
18931;SDS011;9598;50.954;3.112;2023-02-18T10:29:48;8.15;;;2.53;;
18931;SDS011;9598;50.954;3.112;2023-02-18T10:34:51;9.88;;;3.10;;
18931;SDS011;9598;50.954;3.112;2023-02-18T10:39:59;11.23;;;2.90;;
18931;SDS011;9598;50.954;3.112;2023-02-18T10:45:14;7.82;;;2.30;;
18931;SDS011;9598;50.954;3.112;2023-02-18T10:50:24;5.65;;;1.90;;
18931;SDS011;9598;50.954;3.112;2023-02-18T10:55:34;8.25;;;2.70;;
18931;SDS011;9598;50.954;3.112;2023-02-18T11:00:39;7.50;;;2.10;;
18931;SDS011;9598;50.954;3.112;2023-02-18T11:05:41;8.52;;;2.80;;
18931;SDS011;9598;50.954;3.112;2023-02-18T11:10:45;7.63;;;2.70;;
18931;SDS011;9598;50.954;3.112;2023-02-18T11:15:54;8.55;;;2.75;;
18931;SDS011;9598;50.954;3.112;2023-02-18T11:21:02;9.90;;;2.75;;
18931;SDS011;9598;50.954;3.112;2023-02-18T11:26:06;11.23;;;2.65;;
18931;SDS011;9598;50.954;3.112;2023-02-18T11:31:18;5.40;;;1.88;;
18931;SDS011;9598;50.954;3.112;2023-02-18T11:36:23;11.07;;;2.80;;
18931;SDS011;9598;50.954;3.112;2023-02-18T11:41:29;13.07;;;2.72;;
18931;SDS011;9598;50.954;3.112;2023-02-18T11:46:36;7.63;;;2.38;;
18931;SDS011;9598;50.954;3.112;2023-02-18T11:51:38;7.70;;;2.58;;
18931;SDS011;9598;50.954;3.112;2023-02-18T11:56:41;7.82;;;2.28;;
18931;SDS011;9598;50.954;3.112;2023-02-18T12:02:00;7.18;;;2.50;;
18931;SDS011;9598;50.954;3.112;2023-02-18T12:07:11;8.63;;;2.78;;
18931;SDS011;9598;50.954;3.112;2023-02-18T12:12:23;5.80;;;2.70;;
18931;SDS011;9598;50.954;3.112;2023-02-18T12:17:37;6.75;;;2.10;;
18931;SDS011;9598;50.954;3.112;2023-02-18T12:22:50;8.77;;;2.53;;
18931;SDS011;9598;50.954;3.112;2023-02-18T12:28:10;10.20;;;2.75;;
18931;SDS011;9598;50.954;3.112;2023-02-18T12:33:25;7.85;;;2.53;;
18931;SDS011;9598;50.954;3.112;2023-02-18T12:38:47;8.02;;;2.60;;
18931;SDS011;9598;50.954;3.112;2023-02-18T12:44:00;6.63;;;3.20;;
18931;SDS011;9598;50.954;3.112;2023-02-18T12:49:37;12.93;;;2.80;;
18931;SDS011;9598;50.954;3.112;2023-02-18T12:55:00;10.43;;;3.05;;
18931;SDS011;9598;50.954;3.112;2023-02-18T13:00:24;10.52;;;3.00;;
18931;SDS011;9598;50.954;3.112;2023-02-18T13:05:54;11.25;;;3.53;;
18931;SDS011;9598;50.954;3.112;2023-02-18T13:11:13;7.03;;;3.05;;
18931;SDS011;9598;50.954;3.112;2023-02-18T13:16:26;6.00;;;3.05;;
18931;SDS011;9598;50.954;3.112;2023-02-18T13:21:30;15.75;;;3.78;;
18931;SDS011;9598;50.954;3.112;2023-02-18T13:26:33;15.23;;;3.97;;
18931;SDS011;9598;50.954;3.112;2023-02-18T13:31:38;8.45;;;3.70;;
18931;SDS011;9598;50.954;3.112;2023-02-18T13:36:51;9.48;;;3.63;;
18931;SDS011;9598;50.954;3.112;2023-02-18T13:42:11;11.50;;;4.05;;
18931;SDS011;9598;50.954;3.112;2023-02-18T13:47:34;9.93;;;4.35;;
18931;SDS011;9598;50.954;3.112;2023-02-18T13:52:40;11.95;;;4.72;;
18931;SDS011;9598;50.954;3.112;2023-02-18T13:57:44;11.40;;;4.93;;
18931;SDS011;9598;50.954;3.112;2023-02-18T14:02:54;6.78;;;3.38;;
18931;SDS011;9598;50.954;3.112;2023-02-18T14:08:05;4.78;;;3.05;;
18931;SDS011;9598;50.954;3.112;2023-02-18T14:13:24;10.05;;;3.38;;
18931;SDS011;9598;50.954;3.112;2023-02-18T14:18:58;12.13;;;3.65;;
18931;SDS011;9598;50.954;3.112;2023-02-18T14:24:09;10.43;;;3.53;;
18931;SDS011;9598;50.954;3.112;2023-02-18T14:29:14;7.90;;;2.95;;
18931;SDS011;9598;50.954;3.112;2023-02-18T14:39:54;5.95;;;2.58;;
18931;SDS011;9598;50.954;3.112;2023-02-18T14:45:12;7.85;;;2.75;;
18931;SDS011;9598;50.954;3.112;2023-02-18T14:50:21;7.75;;;2.42;;
18931;SDS011;9598;50.954;3.112;2023-02-18T14:55:26;6.00;;;2.95;;
18931;SDS011;9598;50.954;3.112;2023-02-18T15:00:32;6.50;;;2.83;;
18931;SDS011;9598;50.954;3.112;2023-02-18T15:05:36;5.75;;;3.08;;
18931;SDS011;9598;50.954;3.112;2023-02-18T15:10:40;9.07;;;2.92;;
18931;SDS011;9598;50.954;3.112;2023-02-18T15:15:44;7.60;;;2.58;;
18931;SDS011;9598;50.954;3.112;2023-02-18T15:20:50;6.90;;;3.22;;
18931;SDS011;9598;50.954;3.112;2023-02-18T15:25:54;8.75;;;2.85;;
18931;SDS011;9598;50.954;3.112;2023-02-18T15:30:56;7.50;;;3.38;;
18931;SDS011;9598;50.954;3.112;2023-02-18T15:35:59;9.82;;;3.50;;
18931;SDS011;9598;50.954;3.112;2023-02-18T15:41:03;8.02;;;3.90;;
18931;SDS011;9598;50.954;3.112;2023-02-18T15:46:11;9.15;;;3.80;;
18931;SDS011;9598;50.954;3.112;2023-02-18T15:51:16;11.85;;;4.57;;
18931;SDS011;9598;50.954;3.112;2023-02-18T15:56:25;9.15;;;4.38;;
18931;SDS011;9598;50.954;3.112;2023-02-18T16:01:31;8.70;;;3.70;;
18931;SDS011;9598;50.954;3.112;2023-02-18T16:06:34;8.40;;;3.13;;
18931;SDS011;9598;50.954;3.112;2023-02-18T16:11:40;8.90;;;4.45;;
18931;SDS011;9598;50.954;3.112;2023-02-18T16:16:53;10.90;;;4.63;;
18931;SDS011;9598;50.954;3.112;2023-02-18T16:22:04;11.10;;;4.90;;
18931;SDS011;9598;50.954;3.112;2023-02-18T16:27:13;10.82;;;5.40;;
18931;SDS011;9598;50.954;3.112;2023-02-18T16:32:16;11.18;;;5.70;;
18931;SDS011;9598;50.954;3.112;2023-02-18T16:37:18;11.48;;;4.72;;
18931;SDS011;9598;50.954;3.112;2023-02-18T16:42:40;10.43;;;4.95;;
18931;SDS011;9598;50.954;3.112;2023-02-18T16:47:42;11.13;;;4.95;;
18931;SDS011;9598;50.954;3.112;2023-02-18T16:52:46;9.70;;;4.90;;
18931;SDS011;9598;50.954;3.112;2023-02-18T16:57:50;10.40;;;5.03;;
18931;SDS011;9598;50.954;3.112;2023-02-18T17:02:53;14.20;;;5.45;;
18931;SDS011;9598;50.954;3.112;2023-02-18T17:07:58;8.18;;;5.32;;
18931;SDS011;9598;50.954;3.112;2023-02-18T17:13:14;8.98;;;5.13;;
18931;SDS011;9598;50.954;3.112;2023-02-18T17:18:17;9.55;;;5.18;;
18931;SDS011;9598;50.954;3.112;2023-02-18T17:23:20;9.00;;;5.55;;
18931;SDS011;9598;50.954;3.112;2023-02-18T17:28:24;8.63;;;4.97;;
18931;SDS011;9598;50.954;3.112;2023-02-18T17:33:27;9.02;;;5.70;;
18931;SDS011;9598;50.954;3.112;2023-02-18T17:38:29;8.18;;;6.22;;
18931;SDS011;9598;50.954;3.112;2023-02-18T17:43:33;9.23;;;5.82;;
18931;SDS011;9598;50.954;3.112;2023-02-18T17:48:36;11.02;;;6.40;;
18931;SDS011;9598;50.954;3.112;2023-02-18T17:53:38;8.43;;;5.82;;
18931;SDS011;9598;50.954;3.112;2023-02-18T17:58:41;8.13;;;6.07;;
18931;SDS011;9598;50.954;3.112;2023-02-18T18:03:45;6.30;;;5.40;;
18931;SDS011;9598;50.954;3.112;2023-02-18T18:08:47;7.28;;;5.90;;
18931;SDS011;9598;50.954;3.112;2023-02-18T18:13:51;7.10;;;5.60;;
18931;SDS011;9598;50.954;3.112;2023-02-18T18:18:53;7.05;;;5.38;;
18931;SDS011;9598;50.954;3.112;2023-02-18T18:23:55;7.40;;;4.55;;
18931;SDS011;9598;50.954;3.112;2023-02-18T18:28:59;4.75;;;4.35;;
18931;SDS011;9598;50.954;3.112;2023-02-18T18:34:01;7.20;;;5.72;;
18931;SDS011;9598;50.954;3.112;2023-02-18T18:39:03;5.85;;;5.05;;
18931;SDS011;9598;50.954;3.112;2023-02-18T18:44:08;6.30;;;5.65;;
18931;SDS011;9598;50.954;3.112;2023-02-18T18:49:11;5.60;;;5.03;;
18931;SDS011;9598;50.954;3.112;2023-02-18T18:54:13;7.22;;;5.65;;
18931;SDS011;9598;50.954;3.112;2023-02-18T18:59:16;8.73;;;6.25;;
18931;SDS011;9598;50.954;3.112;2023-02-18T19:04:18;8.10;;;6.88;;
18931;SDS011;9598;50.954;3.112;2023-02-18T19:09:20;7.30;;;6.18;;
18931;SDS011;9598;50.954;3.112;2023-02-18T19:14:24;10.40;;;7.13;;
18931;SDS011;9598;50.954;3.112;2023-02-18T19:19:26;7.63;;;5.68;;
18931;SDS011;9598;50.954;3.112;2023-02-18T19:24:30;7.97;;;5.13;;
18931;SDS011;9598;50.954;3.112;2023-02-18T19:29:33;7.50;;;5.05;;
18931;SDS011;9598;50.954;3.112;2023-02-18T19:34:35;7.95;;;5.63;;
18931;SDS011;9598;50.954;3.112;2023-02-18T19:39:38;10.77;;;7.30;;
18931;SDS011;9598;50.954;3.112;2023-02-18T19:44:41;12.43;;;7.72;;
18931;SDS011;9598;50.954;3.112;2023-02-18T19:49:43;13.35;;;8.80;;
18931;SDS011;9598;50.954;3.112;2023-02-18T19:54:45;11.43;;;8.20;;
18931;SDS011;9598;50.954;3.112;2023-02-18T19:59:49;14.25;;;8.35;;
18931;SDS011;9598;50.954;3.112;2023-02-18T20:04:52;11.82;;;6.85;;
18931;SDS011;9598;50.954;3.112;2023-02-18T20:09:54;10.00;;;6.57;;
18931;SDS011;9598;50.954;3.112;2023-02-18T20:14:58;7.18;;;5.35;;
18931;SDS011;9598;50.954;3.112;2023-02-18T20:20:00;9.13;;;5.93;;
18931;SDS011;9598;50.954;3.112;2023-02-18T20:25:03;7.82;;;5.90;;
18931;SDS011;9598;50.954;3.112;2023-02-18T20:30:07;8.05;;;6.35;;
18931;SDS011;9598;50.954;3.112;2023-02-18T20:35:10;11.27;;;7.95;;
18931;SDS011;9598;50.954;3.112;2023-02-18T20:40:12;13.98;;;8.48;;
18931;SDS011;9598;50.954;3.112;2023-02-18T20:45:16;13.15;;;9.40;;
18931;SDS011;9598;50.954;3.112;2023-02-18T20:50:18;14.02;;;10.00;;
18931;SDS011;9598;50.954;3.112;2023-02-18T20:55:21;13.20;;;9.30;;
18931;SDS011;9598;50.954;3.112;2023-02-18T21:00:24;13.68;;;9.38;;
18931;SDS011;9598;50.954;3.112;2023-02-18T21:05:26;14.63;;;9.07;;
18931;SDS011;9598;50.954;3.112;2023-02-18T21:10:29;12.82;;;8.57;;
18931;SDS011;9598;50.954;3.112;2023-02-18T21:15:32;10.23;;;7.97;;
18931;SDS011;9598;50.954;3.112;2023-02-18T21:20:37;13.70;;;8.15;;
18931;SDS011;9598;50.954;3.112;2023-02-18T21:25:39;9.77;;;7.20;;
18931;SDS011;9598;50.954;3.112;2023-02-18T21:30:43;8.93;;;7.88;;
18931;SDS011;9598;50.954;3.112;2023-02-18T21:35:45;8.00;;;6.75;;
18931;SDS011;9598;50.954;3.112;2023-02-18T21:40:48;9.52;;;7.03;;
18931;SDS011;9598;50.954;3.112;2023-02-18T21:45:51;13.20;;;8.82;;
18931;SDS011;9598;50.954;3.112;2023-02-18T21:50:53;12.18;;;8.00;;
18931;SDS011;9598;50.954;3.112;2023-02-18T21:56:07;10.85;;;7.75;;
18931;SDS011;9598;50.954;3.112;2023-02-18T22:01:11;10.23;;;7.20;;
18931;SDS011;9598;50.954;3.112;2023-02-18T22:06:13;13.00;;;7.75;;
18931;SDS011;9598;50.954;3.112;2023-02-18T22:11:15;11.10;;;6.60;;
18931;SDS011;9598;50.954;3.112;2023-02-18T22:16:19;7.80;;;6.38;;
18931;SDS011;9598;50.954;3.112;2023-02-18T22:21:21;11.88;;;7.13;;
18931;SDS011;9598;50.954;3.112;2023-02-18T22:26:23;9.13;;;6.40;;
18931;SDS011;9598;50.954;3.112;2023-02-18T22:31:27;7.60;;;5.90;;
18931;SDS011;9598;50.954;3.112;2023-02-18T22:36:30;10.90;;;6.70;;
18931;SDS011;9598;50.954;3.112;2023-02-18T22:41:33;8.25;;;6.65;;
18931;SDS011;9598;50.954;3.112;2023-02-18T22:46:37;8.57;;;6.28;;
18931;SDS011;9598;50.954;3.112;2023-02-18T22:51:40;6.07;;;5.45;;
18931;SDS011;9598;50.954;3.112;2023-02-18T22:56:43;11.15;;;5.93;;
18931;SDS011;9598;50.954;3.112;2023-02-18T23:01:48;8.35;;;5.85;;
18931;SDS011;9598;50.954;3.112;2023-02-18T23:06:52;8.50;;;5.55;;
18931;SDS011;9598;50.954;3.112;2023-02-18T23:11:54;9.23;;;5.20;;
18931;SDS011;9598;50.954;3.112;2023-02-18T23:16:59;7.82;;;4.97;;
18931;SDS011;9598;50.954;3.112;2023-02-18T23:22:17;10.43;;;5.47;;
18931;SDS011;9598;50.954;3.112;2023-02-18T23:27:20;7.70;;;4.38;;
18931;SDS011;9598;50.954;3.112;2023-02-18T23:32:25;8.15;;;5.18;;
18931;SDS011;9598;50.954;3.112;2023-02-18T23:37:29;6.53;;;4.05;;
18931;SDS011;9598;50.954;3.112;2023-02-18T23:42:51;6.97;;;4.55;;
18931;SDS011;9598;50.954;3.112;2023-02-18T23:47:54;6.50;;;3.90;;
18931;SDS011;9598;50.954;3.112;2023-02-18T23:52:56;10.77;;;4.40;;
18931;SDS011;9598;50.954;3.112;2023-02-18T23:57:58;8.88;;;4.03;;
